Time;durP1;ratioP1;P1;durP2;ratioP2;P2;SDS_P1;SDS_P2;PMS_P1;PMS_P2;Temp;Humidity;BMP_temperature;BMP_pressure;BME280_temperature;BME280_humidity;BME280_pressure;Samples;Min_cycle;Max_cycle;Signal;HPM_P1;HPM_P2
2022/10/17 00:02:20;;;;;;;6.90;2.47;;;;;;;;;;5033881;28;20029;-77
2022/10/17 00:04:47;;;;;;;7.90;2.67;;;;;;;;;;5033615;28;20532;-77
2022/10/17 00:07:13;;;;;;;6.95;2.42;;;;;;;;;;5034005;28;20474;-77
2022/10/17 00:09:42;;;;;;;11.48;2.65;;;;;;;;;;5033790;28;20025;-77
2022/10/17 00:12:08;;;;;;;6.72;2.50;;;;;;;;;;5033976;28;20028;-77
2022/10/17 00:14:35;;;;;;;4.85;2.30;;;;;;;;;;5033454;28;20046;-77
2022/10/17 00:17:01;;;;;;;7.45;2.55;;;;;;;;;;5033933;28;20026;-77
2022/10/17 00:19:27;;;;;;;9.32;2.42;;;;;;;;;;5032332;28;20479;-78
2022/10/17 00:21:54;;;;;;;8.82;2.53;;;;;;;;;;5049004;28;20132;-77
2022/10/17 00:24:20;;;;;;;5.40;2.10;;;;;;;;;;5033392;28;20040;-78
2022/10/17 00:26:47;;;;;;;8.48;2.65;;;;;;;;;;5033429;28;20036;-78
2022/10/17 00:29:13;;;;;;;6.55;2.30;;;;;;;;;;5048987;28;20026;-78
2022/10/17 00:31:39;;;;;;;8.27;2.15;;;;;;;;;;5033500;28;20040;-77
2022/10/17 00:34:06;;;;;;;7.78;2.65;;;;;;;;;;5033120;28;20033;-77
2022/10/17 00:36:33;;;;;;;6.07;2.55;;;;;;;;;;5033590;28;20024;-77
2022/10/17 00:39:00;;;;;;;7.57;2.70;;;;;;;;;;5033381;28;20025;-78
2022/10/17 00:41:29;;;;;;;5.65;2.33;;;;;;;;;;5033161;28;20034;-77
2022/10/17 00:43:58;;;;;;;8.15;2.40;;;;;;;;;;5033148;28;20022;-77
2022/10/17 00:46:26;;;;;;;6.70;2.60;;;;;;;;;;5033100;28;20033;-77
2022/10/17 00:48:53;;;;;;;6.43;3.08;;;;;;;;;;5032631;28;20394;-77
2022/10/17 00:51:22;;;;;;;9.57;2.40;;;;;;;;;;5033056;28;20031;-77
2022/10/17 00:53:50;;;;;;;11.55;3.20;;;;;;;;;;5032963;28;20030;-78
2022/10/17 00:56:18;;;;;;;8.10;2.60;;;;;;;;;;5033029;28;20030;-77
2022/10/17 00:58:45;;;;;;;10.65;2.80;;;;;;;;;;5048116;28;20402;-77
2022/10/17 01:01:11;;;;;;;7.25;2.03;;;;;;;;;;5032998;28;20028;-77
2022/10/17 01:03:37;;;;;;;6.07;2.40;;;;;;;;;;5032363;28;20021;-78
2022/10/17 01:06:04;;;;;;;8.75;2.63;;;;;;;;;;5032916;28;20029;-77
2022/10/17 01:08:30;;;;;;;10.15;2.25;;;;;;;;;;5032735;28;20474;-78
2022/10/17 01:10:56;;;;;;;6.53;2.58;;;;;;;;;;5032581;28;20035;-78
2022/10/17 01:13:38;;;;;;;6.03;2.50;;;;;;;;;;5048181;28;20037;-77
2022/10/17 01:16:10;;;;;;;6.68;2.67;;;;;;;;;;5032380;28;20033;-77
2022/10/17 01:18:49;;;;;;;5.70;2.10;;;;;;;;;;5032556;28;20374;-77
2022/10/17 01:21:15;;;;;;;8.48;2.38;;;;;;;;;;5032460;28;20504;-77
2022/10/17 01:24:00;;;;;;;9.68;2.65;;;;;;;;;;5032584;28;20028;-77
2022/10/17 01:26:45;;;;;;;10.00;2.60;;;;;;;;;;5032423;28;20088;-78
2022/10/17 01:29:22;;;;;;;5.55;2.28;;;;;;;;;;5032416;28;20021;-77
2022/10/17 01:31:54;;;;;;;8.35;2.50;;;;;;;;;;5031935;28;20030;-77
2022/10/17 01:34:25;;;;;;;6.00;2.50;;;;;;;;;;5032196;28;20502;-77
2022/10/17 01:36:51;;;;;;;;;;;;;;;;;;5032813;28;20037;-77
2022/10/17 01:39:36;;;;;;;6.10;2.67;;;;;;;;;;5032186;28;19904;-77
2022/10/17 01:42:06;;;;;;;8.10;2.53;;;;;;;;;;5031918;28;20026;-77
2022/10/17 01:44:38;;;;;;;6.35;2.60;;;;;;;;;;5032154;28;20030;-77
2022/10/17 01:47:09;;;;;;;8.45;2.83;;;;;;;;;;5031674;28;20033;-75
2022/10/17 01:49:37;;;;;;;8.65;2.47;;;;;;;;;;5032121;28;20417;-78
2022/10/17 01:52:09;;;;;;;9.35;2.83;;;;;;;;;;5032046;28;20025;-77
2022/10/17 01:54:47;;;;;;;8.80;2.30;;;;;;;;;;5032075;28;20040;-78
2022/10/17 01:57:33;;;;;;;6.53;2.50;;;;;;;;;;5032365;28;20079;-78
2022/10/17 02:00:00;;;;;;;6.65;2.40;;;;;;;;;;5031792;28;20036;-78
2022/10/17 02:02:27;;;;;;;7.20;2.50;;;;;;;;;;5047367;28;20026;-78
2022/10/17 02:04:55;;;;;;;7.20;2.47;;;;;;;;;;5031883;28;20028;-78
2022/10/17 02:07:21;;;;;;;6.88;2.55;;;;;;;;;;5032079;28;20037;-77
2022/10/17 02:09:48;;;;;;;10.73;2.40;;;;;;;;;;5031923;28;20029;-77
2022/10/17 02:12:17;;;;;;;8.10;2.00;;;;;;;;;;5032016;28;20027;-77
2022/10/17 02:15:16;;;;;;;6.35;2.10;;;;;;;;;;5031566;28;20418;-78
2022/10/17 02:17:57;;;;;;;5.57;2.22;;;;;;;;;;5009933;28;20402;-78
2022/10/17 02:20:25;;;;;;;8.50;2.20;;;;;;;;;;5010011;28;20038;-77
2022/10/17 02:23:17;;;;;;;4.95;2.35;;;;;;;;;;5010179;28;20033;-77
2022/10/17 02:25:48;;;;;;;5.10;2.28;;;;;;;;;;5007262;28;20140;-77
2022/10/17 02:28:27;;;;;;;7.30;2.63;;;;;;;;;;5009948;28;20550;-78
2022/10/17 02:30:59;;;;;;;5.95;2.38;;;;;;;;;;5009390;28;20430;-77
2022/10/17 02:33:36;;;;;;;8.07;2.10;;;;;;;;;;4993338;28;20041;-77
2022/10/17 02:36:05;;;;;;;9.45;2.33;;;;;;;;;;5009592;28;20507;-77
2022/10/17 02:38:32;;;;;;;8.65;2.30;;;;;;;;;;5009805;28;20022;-77
2022/10/17 02:40:59;;;;;;;6.00;2.10;;;;;;;;;;5009728;28;20168;-78
2022/10/17 02:43:25;;;;;;;8.45;2.28;;;;;;;;;;5002273;28;20037;-77
2022/10/17 02:45:53;;;;;;;11.32;2.50;;;;;;;;;;5012992;28;20434;-78
2022/10/17 02:48:27;;;;;;;4.70;1.98;;;;;;;;;;5013235;28;20384;-78
2022/10/17 02:51:05;;;;;;;7.63;2.60;;;;;;;;;;5013294;28;20036;-76
2022/10/17 02:53:39;;;;;;;7.40;2.35;;;;;;;;;;5026810;28;20034;-78
2022/10/17 02:56:10;;;;;;;4.28;2.10;;;;;;;;;;5034986;28;20048;-78
2022/10/17 02:58:38;;;;;;;10.27;2.10;;;;;;;;;;5035037;28;20022;-78
2022/10/17 03:01:04;;;;;;;5.32;2.53;;;;;;;;;;5035080;28;20043;-77
2022/10/17 03:03:31;;;;;;;4.32;2.08;;;;;;;;;;5034879;28;20032;-78
2022/10/17 03:05:58;;;;;;;8.30;2.67;;;;;;;;;;5035111;28;20029;-78
2022/10/17 03:08:24;;;;;;;6.35;2.25;;;;;;;;;;5035152;28;20025;-78
2022/10/17 03:10:51;;;;;;;7.15;2.22;;;;;;;;;;5050354;28;20037;-77
2022/10/17 03:13:18;;;;;;;5.65;2.40;;;;;;;;;;5034384;28;20022;-77
2022/10/17 03:15:44;;;;;;;8.32;2.72;;;;;;;;;;5034788;28;20034;-78
2022/10/17 03:18:11;;;;;;;5.85;2.83;;;;;;;;;;5034970;28;20018;-78
2022/10/17 03:20:37;;;;;;;5.07;2.35;;;;;;;;;;5034730;28;20478;-77
2022/10/17 03:23:03;;;;;;;5.93;2.33;;;;;;;;;;5034567;28;20410;-77
2022/10/17 03:25:30;;;;;;;7.50;2.70;;;;;;;;;;5034480;28;20021;-77
2022/10/17 03:28:00;;;;;;;6.00;2.22;;;;;;;;;;5034293;28;20028;-77
2022/10/17 03:30:28;;;;;;;5.03;2.38;;;;;;;;;;5034566;28;20394;-77
2022/10/17 03:32:54;;;;;;;6.90;2.25;;;;;;;;;;5034511;28;20025;-78
2022/10/17 03:35:20;;;;;;;6.53;2.53;;;;;;;;;;5049785;28;20034;-77
2022/10/17 03:37:47;;;;;;;9.68;2.47;;;;;;;;;;5049730;28;20021;-77
2022/10/17 03:40:13;;;;;;;9.60;2.65;;;;;;;;;;5034309;28;20025;-77
2022/10/17 03:42:39;;;;;;;7.15;2.50;;;;;;;;;;5033787;28;20018;-78
2022/10/17 03:45:06;;;;;;;5.82;2.47;;;;;;;;;;5034132;28;20487;-77
2022/10/17 03:47:32;;;;;;;7.40;2.40;;;;;;;;;;5034215;28;20026;-77
2022/10/17 03:49:59;;;;;;;8.10;2.65;;;;;;;;;;5034541;28;20043;-77
2022/10/17 03:52:25;;;;;;;7.25;2.40;;;;;;;;;;5034269;28;20508;-78
2022/10/17 03:54:51;;;;;;;7.93;2.95;;;;;;;;;;5032782;28;20037;-77
2022/10/17 03:57:18;;;;;;;4.82;2.30;;;;;;;;;;5033693;28;20032;-77
2022/10/17 03:59:45;;;;;;;6.15;2.45;;;;;;;;;;5033984;28;20502;-77
2022/10/17 04:02:11;;;;;;;10.27;3.00;;;;;;;;;;5034253;28;20078;-77
2022/10/17 04:04:37;;;;;;;4.50;2.17;;;;;;;;;;5033920;28;20436;-77
2022/10/17 04:07:04;;;;;;;6.40;2.17;;;;;;;;;;5033884;28;20017;-77
2022/10/17 04:09:30;;;;;;;7.78;2.25;;;;;;;;;;5033843;28;20029;-77
2022/10/17 04:11:56;;;;;;;8.95;2.25;;;;;;;;;;5033438;28;20036;-77
2022/10/17 04:14:23;;;;;;;12.15;2.42;;;;;;;;;;5033478;28;20072;-78
2022/10/17 04:16:49;;;;;;;8.45;2.22;;;;;;;;;;5033505;28;20393;-77
2022/10/17 04:19:15;;;;;;;7.05;2.40;;;;;;;;;;5048979;28;20087;-78
2022/10/17 04:21:42;;;;;;;4.05;2.13;;;;;;;;;;5033584;28;20028;-77
2022/10/17 04:24:10;;;;;;;9.15;2.70;;;;;;;;;;5033606;28;20029;-78
2022/10/17 04:26:36;;;;;;;6.97;2.40;;;;;;;;;;5033176;28;20466;-77
2022/10/17 04:29:02;;;;;;;6.20;2.33;;;;;;;;;;5033462;28;20030;-77
2022/10/17 04:31:29;;;;;;;10.55;2.72;;;;;;;;;;5033404;28;20035;-76
2022/10/17 04:33:55;;;;;;;6.63;2.60;;;;;;;;;;5033419;28;20027;-77
2022/10/17 04:36:22;;;;;;;10.15;2.97;;;;;;;;;;5033250;28;20110;-77
2022/10/17 04:38:48;;;;;;;8.15;2.60;;;;;;;;;;5033472;28;20032;-78
2022/10/17 04:41:15;;;;;;;8.18;2.58;;;;;;;;;;5032895;28;20033;-77
2022/10/17 04:43:42;;;;;;;8.73;2.55;;;;;;;;;;5033170;28;20010;-77
2022/10/17 04:46:10;;;;;;;3.97;2.30;;;;;;;;;;5033260;28;20033;-78
2022/10/17 04:48:37;;;;;;;6.95;2.40;;;;;;;;;;5033033;28;20025;-77
2022/10/17 04:51:05;;;;;;;7.85;2.60;;;;;;;;;;5033184;28;20048;-78
2022/10/17 04:53:32;;;;;;;5.90;2.30;;;;;;;;;;5033217;28;20031;-78
2022/10/17 04:55:59;;;;;;;7.00;2.38;;;;;;;;;;5032511;28;20033;-78
2022/10/17 04:58:28;;;;;;;6.45;2.25;;;;;;;;;;5032915;28;20493;-77
2022/10/17 05:00:54;;;;;;;4.45;2.17;;;;;;;;;;5032738;28;20033;-77
2022/10/17 05:03:21;;;;;;;8.75;2.50;;;;;;;;;;5032697;28;20022;-77
2022/10/17 05:05:47;;;;;;;6.63;2.58;;;;;;;;;;5032474;28;20033;-77
2022/10/17 05:08:14;;;;;;;6.88;2.17;;;;;;;;;;5031491;28;20033;-78
2022/10/17 05:10:41;;;;;;;9.15;2.70;;;;;;;;;;5032376;28;20055;-77
2022/10/17 05:13:07;;;;;;;5.53;2.17;;;;;;;;;;5047730;28;20453;-77
2022/10/17 05:15:34;;;;;;;7.10;2.50;;;;;;;;;;5032425;28;20033;-75
2022/10/17 05:18:01;;;;;;;6.25;2.20;;;;;;;;;;5032399;28;20029;-78
2022/10/17 05:20:27;;;;;;;7.85;2.42;;;;;;;;;;5032609;28;20022;-77
2022/10/17 05:22:54;;;;;;;5.85;2.10;;;;;;;;;;5032466;28;20024;-77
2022/10/17 05:25:20;;;;;;;4.68;2.25;;;;;;;;;;5032039;28;20035;-77
2022/10/17 05:27:47;;;;;;;6.35;2.35;;;;;;;;;;5032448;28;20029;-77
2022/10/17 05:30:13;;;;;;;5.47;2.45;;;;;;;;;;5032294;28;20030;-77
2022/10/17 05:32:39;;;;;;;8.73;2.80;;;;;;;;;;5032205;28;20028;-77
2022/10/17 05:35:06;;;;;;;5.97;2.58;;;;;;;;;;5032285;28;20033;-78
2022/10/17 05:37:32;;;;;;;6.68;2.42;;;;;;;;;;5032088;28;20021;-77
2022/10/17 05:39:59;;;;;;;6.30;2.35;;;;;;;;;;5031864;28;20037;-78
2022/10/17 05:42:25;;;;;;;4.65;2.00;;;;;;;;;;5032074;28;20017;-77
2022/10/17 05:44:52;;;;;;;5.03;2.22;;;;;;;;;;5031941;28;20035;-77
2022/10/17 05:47:18;;;;;;;7.30;2.17;;;;;;;;;;5039037;28;20013;-77
2022/10/17 05:49:44;;;;;;;6.97;2.42;;;;;;;;;;5052076;28;20025;-76
2022/10/17 05:52:11;;;;;;;4.70;2.10;;;;;;;;;;5051929;28;20396;-77
2022/10/17 05:54:37;;;;;;;8.88;2.33;;;;;;;;;;5051387;28;20036;-77
2022/10/17 05:57:03;;;;;;;4.80;2.03;;;;;;;;;;5051845;28;20386;-78
2022/10/17 05:59:29;;;;;;;6.03;2.33;;;;;;;;;;5051737;28;20134;-78
2022/10/17 06:01:56;;;;;;;5.38;2.40;;;;;;;;;;5051926;28;20025;-77
2022/10/17 06:04:22;;;;;;;5.90;2.05;;;;;;;;;;5051663;28;20492;-77
2022/10/17 06:06:49;;;;;;;11.25;2.40;;;;;;;;;;5050747;28;20021;-78
2022/10/17 06:09:15;;;;;;;7.22;2.65;;;;;;;;;;5051321;28;20033;-78
2022/10/17 06:11:41;;;;;;;8.38;2.80;;;;;;;;;;5051032;28;20017;-77
2022/10/17 06:14:08;;;;;;;7.82;2.80;;;;;;;;;;5037805;28;20077;-77
2022/10/17 06:16:34;;;;;;;9.13;2.80;;;;;;;;;;5030881;28;20563;-77
2022/10/17 06:19:00;;;;;;;6.65;2.55;;;;;;;;;;5035312;28;20442;-77
2022/10/17 06:21:27;;;;;;;4.38;2.40;;;;;;;;;;5035635;28;20036;-77
2022/10/17 06:23:53;;;;;;;11.40;3.20;;;;;;;;;;5035853;28;20040;-76
2022/10/17 06:26:20;;;;;;;16.23;2.80;;;;;;;;;;5041125;28;20481;-77
2022/10/17 06:28:46;;;;;;;8.18;2.83;;;;;;;;;;5037171;28;20029;-77
2022/10/17 06:31:15;;;;;;;8.55;3.10;;;;;;;;;;5029795;28;20037;-77
2022/10/17 06:33:41;;;;;;;11.02;3.10;;;;;;;;;;5015632;28;20028;-77
2022/10/17 06:36:09;;;;;;;8.70;2.92;;;;;;;;;;5015353;28;20034;-77
2022/10/17 06:38:36;;;;;;;12.18;3.15;;;;;;;;;;5015440;28;20022;-77
2022/10/17 06:41:06;;;;;;;8.25;3.13;;;;;;;;;;5033430;28;20052;-78
2022/10/17 06:43:32;;;;;;;9.18;2.58;;;;;;;;;;5034898;28;20040;-76
2022/10/17 06:45:59;;;;;;;8.20;3.58;;;;;;;;;;5035707;28;20036;-77
2022/10/17 06:48:25;;;;;;;7.70;3.30;;;;;;;;;;5035021;28;20033;-77
2022/10/17 06:50:51;;;;;;;6.50;3.13;;;;;;;;;;5035110;28;20083;-77
2022/10/17 06:53:18;;;;;;;7.28;2.97;;;;;;;;;;5035177;28;20030;-78
2022/10/17 06:55:44;;;;;;;7.07;3.13;;;;;;;;;;5034715;28;20047;-77
2022/10/17 06:58:10;;;;;;;5.93;2.95;;;;;;;;;;5034642;28;20386;-77
2022/10/17 07:00:37;;;;;;;5.88;2.63;;;;;;;;;;5034874;28;20391;-78
2022/10/17 07:03:03;;;;;;;4.88;2.90;;;;;;;;;;5035253;28;20017;-77
2022/10/17 07:05:29;;;;;;;6.13;2.83;;;;;;;;;;5032736;28;20036;-78
2022/10/17 07:07:56;;;;;;;9.52;2.60;;;;;;;;;;5031484;28;20018;-77
2022/10/17 07:10:22;;;;;;;8.25;2.83;;;;;;;;;;5037558;28;20062;-78
2022/10/17 07:12:48;;;;;;;5.25;2.25;;;;;;;;;;5032730;28;20026;-77
2022/10/17 07:15:15;;;;;;;5.65;2.50;;;;;;;;;;5033225;28;20418;-77
2022/10/17 07:17:41;;;;;;;6.88;2.55;;;;;;;;;;5033671;28;20022;-78
2022/10/17 07:20:08;;;;;;;6.18;2.83;;;;;;;;;;5033622;28;20030;-77
2022/10/17 07:22:34;;;;;;;7.82;2.50;;;;;;;;;;5033525;28;20044;-77
2022/10/17 07:25:00;;;;;;;5.78;2.13;;;;;;;;;;5031595;28;20394;-77
2022/10/17 07:27:27;;;;;;;6.10;2.45;;;;;;;;;;5031427;28;20376;-77
2022/10/17 07:29:53;;;;;;;6.57;2.85;;;;;;;;;;5033098;28;20037;-79
2022/10/17 07:32:19;;;;;;;4.38;2.70;;;;;;;;;;5022809;28;20021;-74
2022/10/17 07:34:46;;;;;;;5.78;2.90;;;;;;;;;;5030775;28;20037;-72
2022/10/17 07:37:12;;;;;;;11.15;3.03;;;;;;;;;;5045338;28;20037;-72
2022/10/17 07:39:38;;;;;;;7.03;2.80;;;;;;;;;;5032952;28;20028;-72
2022/10/17 07:42:06;;;;;;;5.45;2.75;;;;;;;;;;5033239;28;20018;-72
2022/10/17 07:44:34;;;;;;;7.63;2.63;;;;;;;;;;5033250;28;20099;-72
2022/10/17 07:47:00;;;;;;;7.00;2.90;;;;;;;;;;5032558;28;20022;-72
2022/10/17 07:49:27;;;;;;;7.90;2.97;;;;;;;;;;5032924;28;20454;-72
2022/10/17 07:51:53;;;;;;;9.45;3.15;;;;;;;;;;5032768;28;20036;-72
2022/10/17 07:54:20;;;;;;;5.65;3.00;;;;;;;;;;5033233;28;20520;-73
2022/10/17 07:56:49;;;;;;;7.50;2.88;;;;;;;;;;5031414;28;20037;-75
2022/10/17 07:59:18;;;;;;;8.98;2.90;;;;;;;;;;5032079;28;20009;-74
2022/10/17 08:01:45;;;;;;;10.07;3.03;;;;;;;;;;5030952;28;20025;-79
2022/10/17 08:04:11;;;;;;;6.88;2.90;;;;;;;;;;5032067;28;20027;-78
2022/10/17 08:06:38;;;;;;;5.65;3.17;;;;;;;;;;5032835;28;20032;-75
2022/10/17 08:09:04;;;;;;;12.07;3.20;;;;;;;;;;5032499;28;20021;-77
2022/10/17 08:11:30;;;;;;;9.05;3.17;;;;;;;;;;5040977;28;20478;-75
2022/10/17 08:13:57;;;;;;;7.32;3.13;;;;;;;;;;5052331;28;20051;-80
2022/10/17 08:16:23;;;;;;;8.63;3.03;;;;;;;;;;5050956;28;20551;-75
2022/10/17 08:18:49;;;;;;;8.65;2.72;;;;;;;;;;5052006;28;20027;-77
2022/10/17 08:21:16;;;;;;;8.65;2.78;;;;;;;;;;5034229;28;20021;-73
2022/10/17 08:23:42;;;;;;;8.88;2.90;;;;;;;;;;5032739;28;20482;-80
2022/10/17 08:26:12;;;;;;;5.85;2.70;;;;;;;;;;5034186;28;20055;-76
2022/10/17 08:28:39;;;;;;;9.73;2.90;;;;;;;;;;5031537;28;20029;-75
2022/10/17 08:31:11;;;;;;;7.85;3.13;;;;;;;;;;5033465;28;20074;-74
2022/10/17 08:33:37;;;;;;;9.55;2.80;;;;;;;;;;5032088;28;20398;-74
2022/10/17 08:36:05;;;;;;;6.43;2.95;;;;;;;;;;5032767;28;20037;-82
2022/10/17 08:38:32;;;;;;;9.43;3.00;;;;;;;;;;5031725;28;20031;-73
2022/10/17 08:41:00;;;;;;;7.03;2.97;;;;;;;;;;5032294;28;20029;-76
2022/10/17 08:43:36;;;;;;;7.57;2.70;;;;;;;;;;5032176;28;20021;-74
2022/10/17 08:46:04;;;;;;;5.05;2.28;;;;;;;;;;5033146;28;20030;-73
2022/10/17 08:48:32;;;;;;;10.80;2.30;;;;;;;;;;5032497;28;20032;-73
2022/10/17 08:51:01;;;;;;;8.88;2.30;;;;;;;;;;5032697;28;20490;-73
2022/10/17 08:53:37;;;;;;;7.70;2.33;;;;;;;;;;5029593;28;20027;-73
2022/10/17 08:56:07;;;;;;;7.60;2.05;;;;;;;;;;5031290;28;20041;-74
2022/10/17 08:58:35;;;;;;;7.63;2.55;;;;;;;;;;5029396;28;20028;-70
2022/10/17 09:01:04;;;;;;;5.10;2.10;;;;;;;;;;5030524;28;20033;-72
2022/10/17 09:03:36;;;;;;;9.07;2.30;;;;;;;;;;5048408;28;20017;-75
2022/10/17 09:06:12;;;;;;;6.72;2.20;;;;;;;;;;5038738;28;20035;-72
2022/10/17 09:08:51;;;;;;;7.82;2.30;;;;;;;;;;5027789;28;20044;-72
2022/10/17 09:11:29;;;;;;;8.27;2.60;;;;;;;;;;5030022;28;20393;-73
2022/10/17 09:13:58;;;;;;;8.73;2.65;;;;;;;;;;5024569;28;20045;-71
2022/10/17 09:16:29;;;;;;;8.52;2.80;;;;;;;;;;5030759;28;20669;-73
2022/10/17 09:19:09;;;;;;;6.28;2.03;;;;;;;;;;5032214;28;20514;-73
2022/10/17 09:21:47;;;;;;;4.70;2.10;;;;;;;;;;5031537;28;20487;-73
2022/10/17 09:24:39;;;;;;;9.18;2.85;;;;;;;;;;5031985;28;20029;-76
2022/10/17 09:27:12;;;;;;;7.15;2.47;;;;;;;;;;5032769;28;20041;-72
2022/10/17 09:29:39;;;;;;;6.35;2.42;;;;;;;;;;5020452;28;20067;-72
2022/10/17 09:32:16;;;;;;;6.65;2.40;;;;;;;;;;5031583;28;20029;-72
2022/10/17 09:34:43;;;;;;;6.85;2.42;;;;;;;;;;5030743;28;20026;-74
2022/10/17 09:37:13;;;;;;;6.75;2.90;;;;;;;;;;5032577;28;20051;-75
2022/10/17 09:39:40;;;;;;;5.05;2.58;;;;;;;;;;5032196;28;20394;-74
2022/10/17 09:42:09;;;;;;;6.65;2.65;;;;;;;;;;5031949;28;20024;-72
2022/10/17 09:44:40;;;;;;;7.75;2.70;;;;;;;;;;5030518;28;20029;-73
2022/10/17 09:47:06;;;;;;;6.45;2.90;;;;;;;;;;5031595;28;20421;-79
2022/10/17 09:49:40;;;;;;;7.75;3.00;;;;;;;;;;5031735;28;20029;-78
2022/10/17 09:52:29;;;;;;;8.93;3.22;;;;;;;;;;5032049;28;20028;-75
2022/10/17 09:55:14;;;;;;;7.45;2.70;;;;;;;;;;5037751;28;20041;-77
2022/10/17 09:58:10;;;;;;;6.50;2.90;;;;;;;;;;5031017;28;20107;-78
2022/10/17 10:00:38;;;;;;;7.28;3.08;;;;;;;;;;5019092;28;20022;-78
2022/10/17 10:03:10;;;;;;;8.48;2.50;;;;;;;;;;5044011;28;20462;-80
2022/10/17 10:05:37;;;;;;;6.78;3.00;;;;;;;;;;5030817;28;20529;-77
2022/10/17 10:08:05;;;;;;;8.07;2.75;;;;;;;;;;5030764;28;20022;-73
2022/10/17 10:10:32;;;;;;;5.13;2.47;;;;;;;;;;5030823;28;20037;-71
2022/10/17 10:13:06;;;;;;;9.68;2.08;;;;;;;;;;5030799;28;20039;-72
2022/10/17 10:15:40;;;;;;;8.15;2.40;;;;;;;;;;5030391;28;20048;-71
2022/10/17 10:18:24;;;;;;;6.55;2.30;;;;;;;;;;5030789;28;20034;-71
2022/10/17 10:21:10;;;;;;;6.68;2.78;;;;;;;;;;5030779;28;20410;-71
2022/10/17 10:23:41;;;;;;;6.22;2.28;;;;;;;;;;5029468;28;20317;-73
2022/10/17 10:26:10;;;;;;;7.05;2.63;;;;;;;;;;5030846;28;20026;-71
2022/10/17 10:28:37;;;;;;;6.65;2.30;;;;;;;;;;5030214;28;20494;-72
2022/10/17 10:31:05;;;;;;;7.45;2.28;;;;;;;;;;5031004;28;20026;-72
2022/10/17 10:33:33;;;;;;;7.90;2.70;;;;;;;;;;5031481;28;20034;-71
2022/10/17 10:36:03;;;;;;;5.88;2.45;;;;;;;;;;5030708;28;20444;-71
2022/10/17 10:38:31;;;;;;;6.32;2.35;;;;;;;;;;5031354;28;20033;-72
2022/10/17 10:41:06;;;;;;;6.28;2.35;;;;;;;;;;5031539;28;20457;-71
2022/10/17 10:43:35;;;;;;;5.88;2.47;;;;;;;;;;5031155;28;20026;-72
2022/10/17 10:46:03;;;;;;;6.28;2.83;;;;;;;;;;5031168;28;20033;-72
2022/10/17 10:48:32;;;;;;;7.32;2.30;;;;;;;;;;5031501;28;20030;-72
2022/10/17 10:50:59;;;;;;;6.63;2.30;;;;;;;;;;5031440;28;20048;-71
2022/10/17 10:53:48;;;;;;;5.28;2.63;;;;;;;;;;5031541;28;20028;-72
2022/10/17 10:56:26;;;;;;;6.55;2.60;;;;;;;;;;5031068;28;20033;-72
2022/10/17 10:58:54;;;;;;;6.53;2.47;;;;;;;;;;5030974;28;20029;-72
2022/10/17 11:01:45;;;;;;;8.95;2.47;;;;;;;;;;5031072;28;20514;-72
2022/10/17 11:04:17;;;;;;;5.72;2.40;;;;;;;;;;5033661;28;20026;-72
2022/10/17 11:06:44;;;;;;;6.40;2.35;;;;;;;;;;5034776;28;20030;-72
2022/10/17 11:09:23;;;;;;;8.32;2.30;;;;;;;;;;5034889;28;20029;-72
2022/10/17 11:12:01;;;;;;;6.03;2.50;;;;;;;;;;5034433;28;20020;-71
2022/10/17 11:14:28;;;;;;;6.43;2.42;;;;;;;;;;5034421;28;20499;-71
2022/10/17 11:17:03;;;;;;;6.63;2.33;;;;;;;;;;5034707;28;20511;-71
2022/10/17 11:19:58;;;;;;;5.10;2.28;;;;;;;;;;5034564;28;20371;-71
2022/10/17 11:22:32;;;;;;;8.73;2.55;;;;;;;;;;5033811;28;20030;-72
2022/10/17 11:25:06;;;;;;;4.68;2.42;;;;;;;;;;5034638;28;20083;-72
2022/10/17 11:27:34;;;;;;;7.30;2.28;;;;;;;;;;5034100;28;20024;-72
2022/10/17 11:30:02;;;;;;;10.20;2.20;;;;;;;;;;5034536;28;20032;-71
2022/10/17 11:32:40;;;;;;;5.10;1.95;;;;;;;;;;5034381;28;20070;-71
2022/10/17 11:35:26;;;;;;;6.95;2.40;;;;;;;;;;5034213;28;20029;-71
2022/10/17 11:37:56;;;;;;;8.48;2.05;;;;;;;;;;5025538;28;20033;-72
2022/10/17 11:40:28;;;;;;;9.87;2.33;;;;;;;;;;5038222;28;20047;-72
2022/10/17 11:43:03;;;;;;;7.32;2.40;;;;;;;;;;5030264;28;20294;-71
2022/10/17 11:45:33;;;;;;;10.68;2.90;;;;;;;;;;5034325;28;20025;-71
2022/10/17 11:48:02;;;;;;;6.03;1.97;;;;;;;;;;5034695;28;20371;-72
2022/10/17 11:50:37;;;;;;;8.52;2.47;;;;;;;;;;5032255;28;20083;-72
2022/10/17 11:53:08;;;;;;;7.82;2.30;;;;;;;;;;5033045;28;20505;-73
2022/10/17 11:55:37;;;;;;;6.85;2.53;;;;;;;;;;5032769;28;20406;-71
2022/10/17 11:58:18;;;;;;;6.80;2.65;;;;;;;;;;5032960;28;20017;-72
2022/10/17 12:00:53;;;;;;;7.88;2.25;;;;;;;;;;5032842;28;20387;-70
2022/10/17 12:03:42;;;;;;;7.78;2.40;;;;;;;;;;5032666;28;20036;-72
2022/10/17 12:06:09;;;;;;;9.88;2.65;;;;;;;;;;5032754;28;20039;-76
2022/10/17 12:08:48;;;;;;;14.65;2.83;;;;;;;;;;5033995;28;20017;-75
2022/10/17 12:11:33;;;;;;;9.35;2.35;;;;;;;;;;5053370;28;20013;-76
2022/10/17 12:14:00;;;;;;;11.48;2.67;;;;;;;;;;5052863;28;20037;-81
2022/10/17 12:16:29;;;;;;;10.63;2.60;;;;;;;;;;5052854;28;20041;-77
2022/10/17 12:19:05;;;;;;;10.18;2.45;;;;;;;;;;5046064;28;20047;-78
2022/10/17 12:21:50;;;;;;;10.43;2.10;;;;;;;;;;5050691;28;20024;-76
2022/10/17 12:24:32;;;;;;;9.57;2.28;;;;;;;;;;5050800;28;20036;-69
2022/10/17 12:27:18;;;;;;;14.10;2.67;;;;;;;;;;5033481;28;20029;-73
2022/10/17 12:29:45;;;;;;;10.38;2.83;;;;;;;;;;5032253;28;20034;-77
2022/10/17 12:32:12;;;;;;;6.85;2.05;;;;;;;;;;5047673;28;20047;-81
2022/10/17 12:34:38;;;;;;;7.25;2.10;;;;;;;;;;5032125;28;20098;-76
2022/10/17 12:37:05;;;;;;;8.82;2.33;;;;;;;;;;5032208;28;20516;-85
2022/10/17 12:39:31;;;;;;;14.48;2.92;;;;;;;;;;5031854;28;20067;-74
2022/10/17 12:41:57;;;;;;;10.80;2.50;;;;;;;;;;5032007;28;20390;-75
2022/10/17 12:44:26;;;;;;;12.18;2.55;;;;;;;;;;5037833;28;20030;-73
2022/10/17 12:46:53;;;;;;;10.60;2.22;;;;;;;;;;5031600;28;20025;-74
2022/10/17 12:49:19;;;;;;;12.43;2.75;;;;;;;;;;5037961;28;20027;-74
2022/10/17 12:52:15;;;;;;;7.18;2.33;;;;;;;;;;5032962;28;20044;-70
2022/10/17 12:55:02;;;;;;;11.98;2.40;;;;;;;;;;5029910;28;20036;-73
2022/10/17 12:57:28;;;;;;;7.93;2.15;;;;;;;;;;4993522;28;20033;-73
2022/10/17 12:59:54;;;;;;;7.03;2.33;;;;;;;;;;5010802;28;20554;-73
2022/10/17 13:02:23;;;;;;;15.65;2.75;;;;;;;;;;5009578;28;20523;-77
2022/10/17 13:04:52;;;;;;;8.70;2.10;;;;;;;;;;5026044;28;20036;-76
2022/10/17 13:07:22;;;;;;;8.75;2.50;;;;;;;;;;5025181;28;20087;-81
2022/10/17 13:09:49;;;;;;;6.80;2.45;;;;;;;;;;5009501;28;20029;-73
2022/10/17 13:12:22;;;;;;;15.38;2.40;;;;;;;;;;5009384;28;20056;-72
2022/10/17 13:14:50;;;;;;;7.20;2.00;;;;;;;;;;5009068;28;20152;-72
2022/10/17 13:17:28;;;;;;;10.63;2.28;;;;;;;;;;5009644;28;20063;-72
2022/10/17 13:19:54;;;;;;;8.25;2.50;;;;;;;;;;5009246;28;20091;-72
2022/10/17 13:22:22;;;;;;;11.88;2.33;;;;;;;;;;5008836;28;20032;-72
2022/10/17 13:24:49;;;;;;;11.32;2.45;;;;;;;;;;5009209;28;20041;-72
2022/10/17 13:27:29;;;;;;;13.95;2.55;;;;;;;;;;5008741;28;20507;-72
2022/10/17 13:29:57;;;;;;;9.35;2.28;;;;;;;;;;5009989;28;20034;-71
2022/10/17 13:32:24;;;;;;;11.00;2.65;;;;;;;;;;5031201;28;20395;-72
2022/10/17 13:35:07;;;;;;;10.02;2.42;;;;;;;;;;5030939;28;20479;-72
2022/10/17 13:37:34;;;;;;;12.05;2.65;;;;;;;;;;5030623;28;20033;-71
2022/10/17 13:40:01;;;;;;;12.82;3.00;;;;;;;;;;5030729;28;20025;-72
2022/10/17 13:42:29;;;;;;;14.15;2.58;;;;;;;;;;5031218;28;20043;-74
2022/10/17 13:44:56;;;;;;;13.50;2.55;;;;;;;;;;5028637;28;20482;-74
2022/10/17 13:47:23;;;;;;;11.68;2.50;;;;;;;;;;5030856;28;20034;-73
2022/10/17 13:49:50;;;;;;;12.07;2.15;;;;;;;;;;5033129;28;20478;-73
2022/10/17 13:52:20;;;;;;;10.43;2.78;;;;;;;;;;5036111;28;20033;-73
2022/10/17 13:54:49;;;;;;;10.60;2.55;;;;;;;;;;5043797;28;20036;-74
2022/10/17 13:57:19;;;;;;;8.48;2.20;;;;;;;;;;5045695;28;20033;-73
2022/10/17 13:59:46;;;;;;;10.30;2.83;;;;;;;;;;5050679;28;20444;-72
2022/10/17 14:02:15;;;;;;;17.20;2.25;;;;;;;;;;5035504;28;20498;-72
2022/10/17 14:04:41;;;;;;;9.18;2.60;;;;;;;;;;5030490;28;20037;-74
2022/10/17 14:07:19;;;;;;;12.68;2.90;;;;;;;;;;5030335;28;20032;-73
2022/10/17 14:09:46;;;;;;;10.45;2.92;;;;;;;;;;5030950;28;20033;-79
2022/10/17 14:12:13;;;;;;;17.20;2.83;;;;;;;;;;5030569;28;20070;-72
2022/10/17 14:14:41;;;;;;;13.80;2.65;;;;;;;;;;5030121;28;20303;-73
2022/10/17 14:17:14;;;;;;;6.03;2.40;;;;;;;;;;5031439;28;20479;-73
2022/10/17 14:19:40;;;;;;;8.30;2.70;;;;;;;;;;5030958;28;20021;-78
2022/10/17 14:22:21;;;;;;;18.23;2.60;;;;;;;;;;5030689;28;20037;-71
2022/10/17 14:24:50;;;;;;;8.40;2.03;;;;;;;;;;5034003;28;20026;-75
2022/10/17 14:27:28;;;;;;;11.93;2.60;;;;;;;;;;5050280;28;20033;-73
2022/10/17 14:29:59;;;;;;;8.45;2.40;;;;;;;;;;5051280;28;20107;-74
2022/10/17 14:32:27;;;;;;;11.55;2.90;;;;;;;;;;5051143;28;20083;-72
2022/10/17 14:34:55;;;;;;;13.77;3.42;;;;;;;;;;5049842;28;20087;-73
2022/10/17 14:37:31;;;;;;;9.57;2.65;;;;;;;;;;5026001;28;20025;-74
2022/10/17 14:40:01;;;;;;;11.60;2.70;;;;;;;;;;5029627;28;20026;-73
2022/10/17 14:42:28;;;;;;;12.15;2.90;;;;;;;;;;5030514;28;20029;-72
2022/10/17 14:44:57;;;;;;;8.32;2.65;;;;;;;;;;5038328;28;20505;-72
2022/10/17 14:47:26;;;;;;;9.80;2.90;;;;;;;;;;5031773;28;20405;-73
2022/10/17 14:50:07;;;;;;;14.38;2.30;;;;;;;;;;5044324;28;20506;-72
2022/10/17 14:52:34;;;;;;;11.07;2.78;;;;;;;;;;5032395;28;20371;-72
2022/10/17 14:55:12;;;;;;;7.82;2.33;;;;;;;;;;5033712;28;20030;-73
2022/10/17 14:57:43;;;;;;;11.65;3.25;;;;;;;;;;5033596;28;20022;-72